Alexander Maersk — OZRC2 — position and weather

sailwx.info

Track history (hours):
 
Tides and Currents Weather Stations Pressure Air Temp Water Temp Dewpoint Dewpoint Depression Visibility Wind Speed Wind Dir Waves Ship Positions

Alexander Maersk

Last reported at 2015-Aug-03 05:25 UTC. Time now 2015-Aug-04 17:58 UTC.
Position N 32°43' E 014°19'.

Length 155 m; draft 8.6 m.

Type: Ship. MMSI: 219470000.

Date/timePositionNaut miles runAvg speedWind from/ knotsBaromVisibWave heightAir tempDewpointWater temp
2015-Aug-03 05:25N 32°43' E 014°19'0 0.0
2015-Aug-02 15:19N 32°43' E 014°19'0 0.0
2015-Aug-02 14:25N 32°43' E 014°19'2 1.9
2015-Aug-02 13:33N 32°43' E 014°21'0 0.2
2015-Aug-02 12:20N 32°43' E 014°21'0 0.0
2015-Aug-02 11:32N 32°43' E 014°21'0 0.0
2015-Aug-02 10:32N 32°43' E 014°21'0 0.0
2015-Aug-02 09:32N 32°43' E 014°21'0 0.0
2015-Aug-02 08:32N 32°43' E 014°21'0 0.1
2015-Aug-02 07:32N 32°43' E 014°21'0 0.0
2015-Aug-02 06:32N 32°43' E 014°21'0 0.0
2015-Aug-02 05:26N 32°43' E 014°21'0 0.0
2015-Aug-02 00:32N 32°43' E 014°21'14 1.4
2015-Aug-01 14:33N 32°37' E 014°36'34 1.6
2015-Jul-31 16:25N 32°22' E 015°13'0 0.0
2015-Jul-31 15:31N 32°22' E 015°13'0 0.0
2015-Jul-31 14:31N 32°22' E 015°13'0 0.0
2015-Jul-31 13:07N 32°22' E 015°13'0 0.0
2015-Jul-31 12:31N 32°22' E 015°13'0 0.0
2015-Jul-31 11:31N 32°22' E 015°13'0 0.0
2015-Jul-31 10:31N 32°22' E 015°13'0 0.0
2015-Jul-30 17:04N 32°22' E 015°13'0 0.0
2015-Jul-30 16:28N 32°22' E 015°13'0 0.0
2015-Jul-30 15:28N 32°22' E 015°13'0 0.0
2015-Jul-30 14:31N 32°22' E 015°13'1 0.0
2015-Jul-29 08:33N 32°22' E 015°14'4 4.0
2015-Jul-29 07:34N 32°24' E 015°18'2 2.1
2015-Jul-29 06:33N 32°25' E 015°20'1 1.4
2015-Jul-29 05:33N 32°26' E 015°19'7 5.1
2015-Jul-29 04:14N 32°30' E 015°13'94 8.0
2015-Jul-28 16:31N 33°11' E 013°32'8 8.4
2015-Jul-28 15:33N 33°14' E 013°23'8 8.3
2015-Jul-28 14:33N 33°16' E 013°13'8 8.2
2015-Jul-28 13:32N 33°19' E 013°04'8 8.3
2015-Jul-28 12:33N 33°22' E 012°55'8 8.2
2015-Jul-28 11:33N 33°25' E 012°46'8 8.3
2015-Jul-28 10:32N 33°28' E 012°36'2 2.4
2015-Jul-28 09:34N 33°30' E 012°34'1 1.2
2015-Jul-28 08:32N 33°31' E 012°34'2 1.5
2015-Jul-28 07:26N 33°30' E 012°35'6 6.5
2015-Jul-28 06:33N 33°24' E 012°36'1414.0
2015-Jul-28 05:33N 33°25' E 012°53'92 8.4
2015-Jul-27 18:33N 34°09' E 011°16'8 7.7
2015-Jul-27 17:33N 34°14' E 011°08'8 7.8
2015-Jul-27 16:31N 34°19' E 011°01'8 8.0
2015-Jul-27 15:33N 34°24' E 010°54'  
2015-Jul-24 23:29N 34°26' E 010°57'24 8.2
2015-Jul-24 20:33N 34°31' E 011°25'9 8.9
2015-Jul-24 19:34N 34°34' E 011°35'9 8.9
2015-Jul-24 18:34N 34°38' E 011°45'9 9.0
2015-Jul-24 17:34N 34°42' E 011°54'9 8.8
2015-Jul-24 16:33N 34°46' E 012°04'9 8.5
2015-Jul-24 15:34N 34°50' E 012°13'8 8.5
2015-Jul-24 14:33N 34°54' E 012°22'9 8.5
2015-Jul-24 13:32N 34°58' E 012°32'8 8.6
2015-Jul-24 12:34N 35°01' E 012°41'9 8.6
2015-Jul-24 11:34N 35°05' E 012°50'26 8.4
2015-Jul-24 08:28N 35°17' E 013°19'8 8.4
2015-Jul-24 07:34N 35°20' E 013°27'8 8.5
2015-Jul-24 06:34N 35°24' E 013°37'  
Track history (hours):
 
Tides and Currents Weather Stations Pressure Air Temp Water Temp Dewpoint Dewpoint Depression Visibility Wind Speed Wind Dir Waves Ship Positions

Alexander Maersk

Last reported at 2015-Aug-03 05:25 UTC. Time now 2015-Aug-04 17:58 UTC.
Position N 32°43' E 014°19'.

Length 155 m; draft 8.6 m.

Type: Ship. MMSI: 219470000.

Date/timePositionNaut miles runAvg speedWind from/ knotsBaromVisibWave heightAir tempDewpointWater temp
2015-Aug-03 05:25N 32°43' E 014°19'0 0.0
2015-Aug-02 15:19N 32°43' E 014°19'0 0.0
2015-Aug-02 14:25N 32°43' E 014°19'2 1.9
2015-Aug-02 13:33N 32°43' E 014°21'0 0.2
2015-Aug-02 12:20N 32°43' E 014°21'0 0.0
2015-Aug-02 11:32N 32°43' E 014°21'0 0.0
2015-Aug-02 10:32N 32°43' E 014°21'0 0.0
2015-Aug-02 09:32N 32°43' E 014°21'0 0.0
2015-Aug-02 08:32N 32°43' E 014°21'0 0.1
2015-Aug-02 07:32N 32°43' E 014°21'0 0.0
2015-Aug-02 06:32N 32°43' E 014°21'0 0.0
2015-Aug-02 05:26N 32°43' E 014°21'0 0.0
2015-Aug-02 00:32N 32°43' E 014°21'14 1.4
2015-Aug-01 14:33N 32°37' E 014°36'34 1.6
2015-Jul-31 16:25N 32°22' E 015°13'0 0.0
2015-Jul-31 15:31N 32°22' E 015°13'0 0.0
2015-Jul-31 14:31N 32°22' E 015°13'0 0.0
2015-Jul-31 13:07N 32°22' E 015°13'0 0.0
2015-Jul-31 12:31N 32°22' E 015°13'0 0.0
2015-Jul-31 11:31N 32°22' E 015°13'0 0.0
2015-Jul-31 10:31N 32°22' E 015°13'0 0.0
2015-Jul-30 17:04N 32°22' E 015°13'0 0.0
2015-Jul-30 16:28N 32°22' E 015°13'0 0.0
2015-Jul-30 15:28N 32°22' E 015°13'0 0.0
2015-Jul-30 14:31N 32°22' E 015°13'1 0.0
2015-Jul-29 08:33N 32°22' E 015°14'4 4.0
2015-Jul-29 07:34N 32°24' E 015°18'2 2.1
2015-Jul-29 06:33N 32°25' E 015°20'1 1.4
2015-Jul-29 05:33N 32°26' E 015°19'7 5.1
2015-Jul-29 04:14N 32°30' E 015°13'94 8.0
2015-Jul-28 16:31N 33°11' E 013°32'8 8.4
2015-Jul-28 15:33N 33°14' E 013°23'8 8.3
2015-Jul-28 14:33N 33°16' E 013°13'8 8.2
2015-Jul-28 13:32N 33°19' E 013°04'8 8.3
2015-Jul-28 12:33N 33°22' E 012°55'8 8.2
2015-Jul-28 11:33N 33°25' E 012°46'8 8.3
2015-Jul-28 10:32N 33°28' E 012°36'2 2.4
2015-Jul-28 09:34N 33°30' E 012°34'1 1.2
2015-Jul-28 08:32N 33°31' E 012°34'2 1.5
2015-Jul-28 07:26N 33°30' E 012°35'6 6.5
2015-Jul-28 06:33N 33°24' E 012°36'1414.0
2015-Jul-28 05:33N 33°25' E 012°53'92 8.4
2015-Jul-27 18:33N 34°09' E 011°16'8 7.7
2015-Jul-27 17:33N 34°14' E 011°08'8 7.8
2015-Jul-27 16:31N 34°19' E 011°01'8 8.0
2015-Jul-27 15:33N 34°24' E 010°54'  
2015-Jul-24 23:29N 34°26' E 010°57'24 8.2
2015-Jul-24 20:33N 34°31' E 011°25'9 8.9
2015-Jul-24 19:34N 34°34' E 011°35'9 8.9
2015-Jul-24 18:34N 34°38' E 011°45'9 9.0
2015-Jul-24 17:34N 34°42' E 011°54'9 8.8
2015-Jul-24 16:33N 34°46' E 012°04'9 8.5
2015-Jul-24 15:34N 34°50' E 012°13'8 8.5
2015-Jul-24 14:33N 34°54' E 012°22'9 8.5
2015-Jul-24 13:32N 34°58' E 012°32'8 8.6
2015-Jul-24 12:34N 35°01' E 012°41'9 8.6
2015-Jul-24 11:34N 35°05' E 012°50'26 8.4
2015-Jul-24 08:28N 35°17' E 013°19'8 8.4
2015-Jul-24 07:34N 35°20' E 013°27'8 8.5
2015-Jul-24 06:34N 35°24' E 013°37'  

Dump ship's entire track history